Time;durP1;ratioP1;P1;durP2;ratioP2;P2;SDS_P1;SDS_P2;PMS_P1;PMS_P2;Temp;Humidity;BMP_temperature;BMP_pressure;BME280_temperature;BME280_humidity;BME280_pressure;Samples;Min_cycle;Max_cycle;Signal;HPM_P1;HPM_P2
2023/01/07 00:01:48;;;;;;;40.33;25.60;;;;;;;;;;10106176;28;20168;-59
2023/01/07 00:06:51;;;;;;;53.92;29.90;;;;;;;;;;10106108;28;20128;-59
2023/01/07 00:11:45;;;;;;;50.20;30.90;;;;;;;;;;10105526;28;20091;-59
2023/01/07 00:16:39;;;;;;;52.65;31.48;;;;;;;;;;10105662;28;20132;-59
2023/01/07 00:21:33;;;;;;;53.38;32.72;;;;;;;;;;10105799;28;20549;-59
2023/01/07 00:26:30;;;;;;;53.55;30.80;;;;;;;;;;10105840;28;20124;-59
2023/01/07 00:31:32;;;;;;;43.97;28.63;;;;;;;;;;10105077;28;20329;-59
2023/01/07 00:36:27;;;;;;;44.53;26.35;;;;;;;;;;10105450;28;20044;-59
2023/01/07 00:41:21;;;;;;;42.90;23.90;;;;;;;;;;10103191;28;20498;-59
2023/01/07 00:46:15;;;;;;;42.45;25.02;;;;;;;;;;10104307;28;20080;-59
2023/01/07 00:51:11;;;;;;;37.78;24.58;;;;;;;;;;10106123;28;20489;-59
2023/01/07 00:56:05;;;;;;;38.83;23.92;;;;;;;;;;10104260;28;20144;-59
2023/01/07 01:01:01;;;;;;;32.35;21.52;;;;;;;;;;10105502;28;20047;-59
2023/01/07 01:05:59;;;;;;;42.10;23.10;;;;;;;;;;10098555;28;20148;-59
2023/01/07 01:10:53;;;;;;;36.15;23.40;;;;;;;;;;10089923;28;20037;-59
2023/01/07 01:15:47;;;;;;;33.28;19.80;;;;;;;;;;10102553;28;20120;-60
2023/01/07 01:20:41;;;;;;;39.90;23.80;;;;;;;;;;10086798;28;20127;-60
2023/01/07 01:25:35;;;;;;;43.15;25.33;;;;;;;;;;10104533;28;20049;-60
2023/01/07 01:30:30;;;;;;;49.95;26.35;;;;;;;;;;10104147;28;20073;-60
2023/01/07 01:35:25;;;;;;;42.83;26.65;;;;;;;;;;10086155;28;20049;-60
2023/01/07 01:40:19;;;;;;;41.33;25.52;;;;;;;;;;10087663;28;20069;-60
2023/01/07 01:45:13;;;;;;;34.78;21.92;;;;;;;;;;10107713;28;20049;-60
2023/01/07 01:50:26;;;;;;;35.90;19.83;;;;;;;;;;10093259;28;20135;-60
2023/01/07 01:55:24;;;;;;;32.13;19.48;;;;;;;;;;10102320;28;20143;-60
2023/01/07 02:00:20;;;;;;;34.25;21.45;;;;;;;;;;10096480;28;20049;-60
2023/01/07 02:05:16;;;;;;;29.98;18.92;;;;;;;;;;10095625;28;20068;-59
2023/01/07 02:10:10;;;;;;;29.75;17.70;;;;;;;;;;10090626;28;20414;-60
2023/01/07 02:15:17;;;;;;;29.70;17.92;;;;;;;;;;10108392;28;20057;-60
2023/01/07 02:20:29;;;;;;;29.63;19.42;;;;;;;;;;10092398;28;20501;-60
2023/01/07 02:26:02;;;;;;;30.90;19.35;;;;;;;;;;10109208;28;20065;-60
2023/01/07 02:31:17;;;;;;;30.10;17.42;;;;;;;;;;10110207;28;20131;-60
2023/01/07 02:36:28;;;;;;;29.67;16.70;;;;;;;;;;10098411;28;20049;-60
2023/01/07 02:41:48;;;;;;;28.25;15.93;;;;;;;;;;10100882;28;20080;-60
2023/01/07 02:46:56;;;;;;;20.50;14.82;;;;;;;;;;10109622;28;20045;-60
2023/01/07 02:51:50;;;;;;;24.23;14.48;;;;;;;;;;10074443;28;20068;-60
2023/01/07 02:57:14;;;;;;;24.35;15.30;;;;;;;;;;10100172;28;20422;-60
2023/01/07 03:02:52;;;;;;;28.08;15.75;;;;;;;;;;10090746;28;20084;-60
2023/01/07 03:08:10;;;;;;;24.52;15.70;;;;;;;;;;10026234;28;20044;-60
2023/01/07 03:13:16;;;;;;;19.33;13.45;;;;;;;;;;10107817;28;20136;-60
2023/01/07 03:18:34;;;;;;;22.98;12.93;;;;;;;;;;10101756;28;20612;-60
2023/01/07 03:23:50;;;;;;;18.67;12.38;;;;;;;;;;10107380;28;20049;-60
2023/01/07 03:28:45;;;;;;;22.60;13.07;;;;;;;;;;10106396;28;20735;-60
2023/01/07 03:33:43;;;;;;;16.55;11.68;;;;;;;;;;10107358;28;20045;-60
2023/01/07 03:38:37;;;;;;;22.85;11.68;;;;;;;;;;10106756;28;20045;-60
2023/01/07 03:43:31;;;;;;;14.98;10.57;;;;;;;;;;10104432;28;20140;-60
2023/01/07 03:48:25;;;;;;;19.05;10.80;;;;;;;;;;10107084;28;20045;-60
2023/01/07 03:53:20;;;;;;;12.50;9.52;;;;;;;;;;10088410;28;20052;-60
2023/01/07 03:58:16;;;;;;;18.35;11.77;;;;;;;;;;10096566;28;20045;-60
2023/01/07 04:03:10;;;;;;;15.10;10.90;;;;;;;;;;10106492;28;20532;-60
2023/01/07 04:08:07;;;;;;;15.55;10.32;;;;;;;;;;10087419;28;20452;-60
2023/01/07 04:13:03;;;;;;;15.80;10.27;;;;;;;;;;10086032;28;20053;-60
2023/01/07 04:17:57;;;;;;;13.75;9.35;;;;;;;;;;10088382;28;20374;-60
2023/01/07 04:22:50;;;;;;;13.52;10.07;;;;;;;;;;10085727;28;20048;-60
2023/01/07 04:27:43;;;;;;;13.95;9.93;;;;;;;;;;10094948;28;20053;-60
2023/01/07 04:32:37;;;;;;;13.52;9.40;;;;;;;;;;10087673;28;20053;-60
2023/01/07 04:37:31;;;;;;;15.40;9.75;;;;;;;;;;10091497;28;20041;-60
2023/01/07 04:42:25;;;;;;;12.30;8.80;;;;;;;;;;10087387;28;20045;-60
2023/01/07 04:47:19;;;;;;;13.95;8.52;;;;;;;;;;10104222;28;20069;-60
2023/01/07 04:52:13;;;;;;;14.75;8.95;;;;;;;;;;10105314;28;20067;-60
2023/01/07 04:57:07;;;;;;;13.10;8.23;;;;;;;;;;10087204;28;20589;-60
2023/01/07 05:02:02;;;;;;;14.45;8.95;;;;;;;;;;10087341;28;20049;-59
2023/01/07 05:06:55;;;;;;;15.10;9.23;;;;;;;;;;10105361;28;20052;-60
2023/01/07 05:11:50;;;;;;;12.80;10.05;;;;;;;;;;10086801;28;20049;-60
2023/01/07 05:16:43;;;;;;;19.67;12.82;;;;;;;;;;10084760;28;20166;-60
2023/01/07 05:21:37;;;;;;;18.90;10.35;;;;;;;;;;10090503;28;20049;-60
2023/01/07 05:26:31;;;;;;;15.95;10.02;;;;;;;;;;10094398;28;20063;-60
2023/01/07 05:31:25;;;;;;;14.68;8.95;;;;;;;;;;10094398;28;20061;-59
2023/01/07 05:36:19;;;;;;;12.65;9.00;;;;;;;;;;10112659;28;20064;-59
2023/01/07 05:41:14;;;;;;;14.32;9.60;;;;;;;;;;10093980;28;20037;-59
2023/01/07 05:46:08;;;;;;;12.27;8.90;;;;;;;;;;10092531;28;20137;-59
2023/01/07 05:51:03;;;;;;;13.38;10.18;;;;;;;;;;10111353;28;20048;-59
2023/01/07 05:55:57;;;;;;;9.55;7.38;;;;;;;;;;10111766;28;20505;-59
2023/01/07 06:00:50;;;;;;;13.85;8.65;;;;;;;;;;10110677;28;20103;-59
2023/01/07 06:05:45;;;;;;;10.98;7.50;;;;;;;;;;10110366;28;20508;-60
2023/01/07 06:10:38;;;;;;;14.38;7.65;;;;;;;;;;10110423;28;20049;-60
2023/01/07 06:15:32;;;;;;;9.68;7.03;;;;;;;;;;10093101;28;20052;-60
2023/01/07 06:20:28;;;;;;;9.18;6.95;;;;;;;;;;10110779;28;20049;-59
2023/01/07 06:25:22;;;;;;;10.38;7.72;;;;;;;;;;10109991;28;20718;-60
2023/01/07 06:30:16;;;;;;;10.18;8.70;;;;;;;;;;10109409;28;20045;-60
2023/01/07 06:35:11;;;;;;;9.45;6.85;;;;;;;;;;10109714;28;20091;-60
2023/01/07 06:40:06;;;;;;;12.68;7.85;;;;;;;;;;10109350;28;20049;-60
2023/01/07 06:45:00;;;;;;;19.27;10.90;;;;;;;;;;10109754;28;20513;-60
2023/01/07 06:49:54;;;;;;;13.90;8.80;;;;;;;;;;10109608;28;20053;-59
2023/01/07 06:54:48;;;;;;;11.20;7.22;;;;;;;;;;10109254;28;20057;-59
2023/01/07 06:59:43;;;;;;;11.02;8.13;;;;;;;;;;10108372;28;20502;-60
2023/01/07 07:04:40;;;;;;;12.98;7.60;;;;;;;;;;10109088;28;20067;-59
2023/01/07 07:09:33;;;;;;;12.68;7.63;;;;;;;;;;10108512;28;20044;-59
2023/01/07 07:14:26;;;;;;;11.43;8.07;;;;;;;;;;10089893;28;20045;-59
2023/01/07 07:19:21;;;;;;;9.48;6.72;;;;;;;;;;10078379;28;20144;-59
2023/01/07 07:24:15;;;;;;;10.27;7.40;;;;;;;;;;10078103;28;20045;-59
2023/01/07 07:29:09;;;;;;;10.60;7.68;;;;;;;;;;10076955;28;20108;-59
2023/01/07 07:34:03;;;;;;;11.32;8.48;;;;;;;;;;10074803;28;20041;-59
2023/01/07 07:38:57;;;;;;;11.70;8.45;;;;;;;;;;10075971;28;20414;-59
2023/01/07 07:43:51;;;;;;;11.82;9.63;;;;;;;;;;10076979;28;20037;-59
2023/01/07 07:48:48;;;;;;;11.90;9.18;;;;;;;;;;10072502;28;20073;-59
2023/01/07 07:53:41;;;;;;;10.35;8.50;;;;;;;;;;10072429;28;20063;-59
2023/01/07 07:58:35;;;;;;;12.35;8.20;;;;;;;;;;10106651;28;20114;-59
2023/01/07 08:03:29;;;;;;;10.48;8.32;;;;;;;;;;10106018;28;20073;-59
2023/01/07 08:08:23;;;;;;;9.23;6.80;;;;;;;;;;10102687;28;20087;-61
2023/01/07 08:13:16;;;;;;;8.40;6.50;;;;;;;;;;10104640;28;20406;-60
2023/01/07 08:18:09;;;;;;;10.27;7.78;;;;;;;;;;10105726;28;20095;-60
2023/01/07 08:23:03;;;;;;;11.32;7.07;;;;;;;;;;10105202;28;20075;-61
2023/01/07 08:27:58;;;;;;;11.38;8.27;;;;;;;;;;10101887;28;20053;-61
2023/01/07 08:32:51;;;;;;;10.93;7.13;;;;;;;;;;10075531;28;20057;-61
2023/01/07 08:37:46;;;;;;;10.43;8.32;;;;;;;;;;10095275;28;20045;-61
2023/01/07 08:42:40;;;;;;;9.43;7.30;;;;;;;;;;10103549;28;20091;-61
2023/01/07 08:47:34;;;;;;;10.57;8.23;;;;;;;;;;10103757;28;20487;-61
2023/01/07 08:52:28;;;;;;;15.32;7.82;;;;;;;;;;10104874;28;20057;-61
2023/01/07 08:57:21;;;;;;;9.85;7.47;;;;;;;;;;10110087;28;20048;-62
2023/01/07 09:02:19;;;;;;;8.93;6.57;;;;;;;;;;10108240;28;20044;-62
2023/01/07 09:07:13;;;;;;;9.07;7.07;;;;;;;;;;10110321;28;20049;-62
2023/01/07 09:12:08;;;;;;;11.07;8.50;;;;;;;;;;10110331;28;20053;-61
2023/01/07 09:17:03;;;;;;;14.18;8.48;;;;;;;;;;10112609;28;20053;-60
2023/01/07 09:21:56;;;;;;;10.80;7.30;;;;;;;;;;10109063;28;20045;-61
2023/01/07 09:26:50;;;;;;;18.77;9.60;;;;;;;;;;10098821;28;20057;-61
2023/01/07 09:31:43;;;;;;;10.93;7.32;;;;;;;;;;10103553;28;20088;-61
2023/01/07 09:36:37;;;;;;;10.65;7.80;;;;;;;;;;10092032;28;20053;-62
2023/01/07 09:41:45;;;;;;;11.50;7.85;;;;;;;;;;10086268;28;20045;-62
2023/01/07 09:46:39;;;;;;;10.77;7.57;;;;;;;;;;10091421;28;20048;-61
2023/01/07 09:51:37;;;;;;;9.52;7.18;;;;;;;;;;10095815;28;20077;-61
2023/01/07 09:56:32;;;;;;;12.38;10.93;;;;;;;;;;10055316;28;20057;-61
2023/01/07 10:01:46;;;;;;;13.60;8.25;;;;;;;;;;10049142;28;20141;-60
2023/01/07 10:06:57;;;;;;;9.25;7.38;;;;;;;;;;10063609;28;20046;-60
2023/01/07 10:12:02;;;;;;;9.57;6.97;;;;;;;;;;10055892;28;20049;-60
2023/01/07 10:17:07;;;;;;;13.13;9.75;;;;;;;;;;10058067;28;20056;-60
2023/01/07 10:22:17;;;;;;;10.68;7.28;;;;;;;;;;10060115;28;20060;-60
2023/01/07 10:27:13;;;;;;;10.30;7.85;;;;;;;;;;10058458;28;20049;-60
2023/01/07 10:32:18;;;;;;;10.73;8.38;;;;;;;;;;10072990;28;20049;-60
2023/01/07 10:37:32;;;;;;;12.02;9.18;;;;;;;;;;10054644;28;20054;-60
2023/01/07 10:43:03;;;;;;;10.25;8.48;;;;;;;;;;10060373;28;20057;-60
2023/01/07 10:48:05;;;;;;;10.30;8.02;;;;;;;;;;10043704;28;20078;-61
2023/01/07 10:53:12;;;;;;;13.98;8.18;;;;;;;;;;10064989;28;20056;-60
2023/01/07 10:58:11;;;;;;;10.50;7.88;;;;;;;;;;10097289;28;20033;-60
2023/01/07 11:03:18;;;;;;;9.38;7.60;;;;;;;;;;10101427;28;20052;-61
2023/01/07 11:08:19;;;;;;;11.55;7.95;;;;;;;;;;10095787;28;20049;-61
2023/01/07 11:13:37;;;;;;;11.52;8.50;;;;;;;;;;10092778;28;20457;-61
2023/01/07 11:18:51;;;;;;;12.23;7.88;;;;;;;;;;10096650;28;20080;-60
2023/01/07 11:23:45;;;;;;;14.63;8.57;;;;;;;;;;10089978;28;20048;-60
2023/01/07 11:28:57;;;;;;;10.57;8.25;;;;;;;;;;10104180;28;20524;-60
2023/01/07 11:33:52;;;;;;;11.90;9.45;;;;;;;;;;10072202;28;20103;-60
2023/01/07 11:39:15;;;;;;;11.27;8.77;;;;;;;;;;10083012;28;20096;-61
2023/01/07 11:44:16;;;;;;;12.95;9.45;;;;;;;;;;10088051;28;20040;-61
2023/01/07 11:49:38;;;;;;;15.43;10.88;;;;;;;;;;10092428;28;20132;-61
2023/01/07 11:54:32;;;;;;;14.00;10.95;;;;;;;;;;10087618;28;20065;-61
2023/01/07 11:59:27;;;;;;;19.65;10.65;;;;;;;;;;10098299;28;20677;-61
2023/01/07 12:04:35;;;;;;;12.35;9.75;;;;;;;;;;10100631;28;20107;-60
2023/01/07 12:09:36;;;;;;;18.80;10.88;;;;;;;;;;10081178;28;20121;-60
2023/01/07 12:14:33;;;;;;;17.75;11.38;;;;;;;;;;10075229;28;20081;-61
2023/01/07 12:19:44;;;;;;;17.30;11.55;;;;;;;;;;10096964;28;20056;-60
2023/01/07 12:24:51;;;;;;;11.85;9.65;;;;;;;;;;10097225;28;20041;-62
2023/01/07 12:30:04;;;;;;;14.60;9.07;;;;;;;;;;10092619;28;20123;-61
2023/01/07 12:35:39;;;;;;;15.05;11.38;;;;;;;;;;10098698;28;20137;-61
2023/01/07 12:41:12;;;;;;;17.10;12.40;;;;;;;;;;10015852;28;20041;-60
2023/01/07 12:47:04;;;;;;;15.48;12.32;;;;;;;;;;10087906;28;20103;-61
2023/01/07 12:52:29;;;;;;;14.23;11.68;;;;;;;;;;10093024;28;20068;-61
2023/01/07 12:57:27;;;;;;;13.68;10.70;;;;;;;;;;10071498;28;20440;-60
2023/01/07 13:02:32;;;;;;;13.23;9.80;;;;;;;;;;10073552;28;20563;-60
2023/01/07 13:07:41;;;;;;;13.95;11.15;;;;;;;;;;10075667;28;20053;-60
2023/01/07 13:12:42;;;;;;;18.27;11.35;;;;;;;;;;10096713;28;20067;-60
2023/01/07 13:17:39;;;;;;;16.95;10.55;;;;;;;;;;10096911;28;20052;-61
2023/01/07 13:23:04;;;;;;;15.15;10.05;;;;;;;;;;10094068;28;20050;-60
2023/01/07 13:28:25;;;;;;;14.55;11.13;;;;;;;;;;9985825;28;20057;-60
2023/01/07 13:33:36;;;;;;;18.83;14.13;;;;;;;;;;10077965;28;20071;-59
2023/01/07 13:38:52;;;;;;;17.10;13.68;;;;;;;;;;10088334;28;20045;-60
2023/01/07 13:44:08;;;;;;;14.25;11.98;;;;;;;;;;10093232;28;20045;-61
2023/01/07 13:49:01;;;;;;;19.83;14.90;;;;;;;;;;10080964;28;20045;-60
2023/01/07 13:53:55;;;;;;;22.38;16.08;;;;;;;;;;10110493;28;20063;-60
2023/01/07 13:59:27;;;;;;;21.08;14.43;;;;;;;;;;10110551;28;20094;-60
2023/01/07 14:04:47;;;;;;;18.27;13.98;;;;;;;;;;10110364;28;20128;-60
2023/01/07 14:09:41;;;;;;;20.35;14.10;;;;;;;;;;10102926;28;20099;-61
2023/01/07 14:14:51;;;;;;;18.88;14.30;;;;;;;;;;10110162;28;20043;-61
2023/01/07 14:20:19;;;;;;;21.00;14.27;;;;;;;;;;10110860;28;20057;-61
2023/01/07 14:25:21;;;;;;;20.02;14.77;;;;;;;;;;10104610;28;20451;-61
2023/01/07 14:30:19;;;;;;;21.25;14.32;;;;;;;;;;10111798;28;20131;-61
2023/01/07 14:35:11;;;;;;;19.27;14.48;;;;;;;;;;10124301;28;20045;-61
2023/01/07 14:40:31;;;;;;;16.98;13.15;;;;;;;;;;10109457;28;20083;-60
2023/01/07 14:45:37;;;;;;;18.63;14.95;;;;;;;;;;10105522;28;20079;-61
2023/01/07 14:50:46;;;;;;;17.70;13.60;;;;;;;;;;10106058;28;20041;-61
2023/01/07 14:55:50;;;;;;;14.65;11.10;;;;;;;;;;10053782;28;20506;-61
2023/01/07 15:01:20;;;;;;;18.38;12.50;;;;;;;;;;10083780;28;20069;-61
2023/01/07 15:06:20;;;;;;;18.63;13.80;;;;;;;;;;10069028;28;20442;-61
2023/01/07 15:16:33;;;;;;;16.73;13.02;;;;;;;;;;10079740;28;20099;-61
2023/01/07 15:21:47;;;;;;;19.13;12.98;;;;;;;;;;10067318;28;20049;-61
2023/01/07 15:27:05;;;;;;;19.23;14.77;;;;;;;;;;10073230;28;20045;-61
2023/01/07 15:32:36;;;;;;;26.85;18.80;;;;;;;;;;10067584;28;20076;-61
2023/01/07 15:37:30;;;;;;;21.30;14.65;;;;;;;;;;10071494;28;20049;-61
2023/01/07 15:42:26;;;;;;;21.90;14.40;;;;;;;;;;10073820;28;20084;-61
2023/01/07 15:47:52;;;;;;;19.75;13.27;;;;;;;;;;10079410;28;20061;-61
2023/01/07 15:52:52;;;;;;;19.08;13.32;;;;;;;;;;10072999;28;20060;-61
2023/01/07 15:57:46;;;;;;;18.58;12.70;;;;;;;;;;10107006;28;20045;-61
2023/01/07 16:02:41;;;;;;;17.23;13.13;;;;;;;;;;10107267;28;20118;-61
2023/01/07 16:07:56;;;;;;;21.00;13.48;;;;;;;;;;10102558;28;20499;-61
2023/01/07 16:12:55;;;;;;;26.88;15.75;;;;;;;;;;10087198;28;20056;-61
2023/01/07 16:17:50;;;;;;;20.50;14.65;;;;;;;;;;10107367;28;20072;-60
2023/01/07 16:22:44;;;;;;;20.27;15.98;;;;;;;;;;10101710;28;20087;-61
2023/01/07 16:27:37;;;;;;;25.88;17.83;;;;;;;;;;10105041;28;20103;-61
2023/01/07 16:32:32;;;;;;;27.38;17.90;;;;;;;;;;10106950;28;20051;-61
2023/01/07 16:37:26;;;;;;;20.90;15.15;;;;;;;;;;10105740;28;20118;-60
2023/01/07 16:42:23;;;;;;;30.73;20.15;;;;;;;;;;10086550;28;20379;-61
2023/01/07 16:47:26;;;;;;;30.85;19.65;;;;;;;;;;10105063;28;20053;-61
2023/01/07 16:52:22;;;;;;;21.33;16.38;;;;;;;;;;10104006;28;20172;-61
2023/01/07 16:57:15;;;;;;;21.17;16.67;;;;;;;;;;10117089;28;20092;-61
2023/01/07 17:02:28;;;;;;;26.40;15.40;;;;;;;;;;10105091;28;20142;-61
2023/01/07 17:07:25;;;;;;;20.00;14.05;;;;;;;;;;10104757;28;20064;-61
2023/01/07 17:12:29;;;;;;;26.33;17.05;;;;;;;;;;10106504;28;20512;-61
2023/01/07 17:17:25;;;;;;;23.70;18.80;;;;;;;;;;10106416;28;20049;-61
2023/01/07 17:22:32;;;;;;;26.88;17.50;;;;;;;;;;10112025;28;20045;-61
2023/01/07 17:27:28;;;;;;;24.48;16.90;;;;;;;;;;10111124;28;20079;-61
2023/01/07 17:32:23;;;;;;;20.25;15.23;;;;;;;;;;10101694;28;20049;-61
2023/01/07 17:37:16;;;;;;;18.98;14.98;;;;;;;;;;10104685;28;20083;-60
2023/01/07 17:47:40;;;;;;;22.80;16.85;;;;;;;;;;10112626;28;20049;-60
2023/01/07 17:52:33;;;;;;;27.77;19.48;;;;;;;;;;10105056;28;20468;-61
2023/01/07 17:57:27;;;;;;;28.65;20.33;;;;;;;;;;10127006;28;20056;-61
2023/01/07 18:02:24;;;;;;;25.80;18.20;;;;;;;;;;10110886;28;20049;-61
2023/01/07 18:07:18;;;;;;;23.67;18.33;;;;;;;;;;10110808;28;20386;-61
2023/01/07 18:12:29;;;;;;;25.27;18.98;;;;;;;;;;10125594;28;20051;-64
2023/01/07 18:17:21;;;;;;;29.35;19.75;;;;;;;;;;10124691;28;20057;-61
2023/01/07 18:22:15;;;;;;;28.58;18.88;;;;;;;;;;10120091;28;20499;-61
2023/01/07 18:27:15;;;;;;;24.45;20.00;;;;;;;;;;10110196;28;20049;-60
2023/01/07 18:32:08;;;;;;;25.60;18.27;;;;;;;;;;10108279;28;20053;-60
2023/01/07 18:37:02;;;;;;;25.30;19.25;;;;;;;;;;10114255;28;20115;-61
2023/01/07 18:41:56;;;;;;;26.67;17.65;;;;;;;;;;10112201;28;20494;-60
2023/01/07 18:46:49;;;;;;;34.00;21.45;;;;;;;;;;10138885;28;20726;-59
2023/01/07 18:51:45;;;;;;;24.15;16.85;;;;;;;;;;10104794;28;20445;-60
2023/01/07 18:56:40;;;;;;;24.48;17.58;;;;;;;;;;10113739;28;20060;-60
2023/01/07 19:01:33;;;;;;;33.08;20.27;;;;;;;;;;10109222;28;20673;-60
2023/01/07 19:06:27;;;;;;;28.05;18.90;;;;;;;;;;10102396;28;20053;-61
2023/01/07 19:11:20;;;;;;;25.33;17.60;;;;;;;;;;10114688;28;20561;-61
2023/01/07 19:16:14;;;;;;;27.15;18.83;;;;;;;;;;10119239;28;20048;-60
2023/01/07 19:21:10;;;;;;;31.23;21.77;;;;;;;;;;10105193;28;20075;-61
2023/01/07 19:26:07;;;;;;;35.17;23.33;;;;;;;;;;10104912;28;20052;-61
2023/01/07 19:31:04;;;;;;;34.08;22.58;;;;;;;;;;10110133;28;20067;-61
2023/01/07 19:36:08;;;;;;;50.47;25.40;;;;;;;;;;10109686;28;20088;-61
2023/01/07 19:41:01;;;;;;;27.65;21.13;;;;;;;;;;10126211;28;20037;-62
2023/01/07 19:45:56;;;;;;;38.85;25.60;;;;;;;;;;10099951;28;20068;-61
2023/01/07 19:51:01;;;;;;;37.80;24.48;;;;;;;;;;10108307;28;20411;-60
2023/01/07 19:56:00;;;;;;;39.28;22.63;;;;;;;;;;10113538;28;20048;-61
2023/01/07 20:00:53;;;;;;;31.17;22.20;;;;;;;;;;10126267;28;20417;-60
2023/01/07 20:05:47;;;;;;;35.15;23.33;;;;;;;;;;10124072;28;20068;-60
2023/01/07 20:10:41;;;;;;;48.65;28.45;;;;;;;;;;10123355;28;20064;-60
2023/01/07 20:15:36;;;;;;;43.72;24.75;;;;;;;;;;10120731;28;20056;-60
2023/01/07 20:20:30;;;;;;;32.45;23.23;;;;;;;;;;10122879;28;20053;-61
2023/01/07 20:25:25;;;;;;;31.17;23.70;;;;;;;;;;10117341;28;20139;-61
2023/01/07 20:30:20;;;;;;;35.90;25.65;;;;;;;;;;10118751;28;20463;-61
2023/01/07 20:35:13;;;;;;;38.53;26.05;;;;;;;;;;10122081;28;20075;-60
2023/01/07 20:40:10;;;;;;;31.45;22.65;;;;;;;;;;10118471;28;20049;-61
2023/01/07 20:45:11;;;;;;;35.17;23.58;;;;;;;;;;10108173;28;20118;-61
2023/01/07 20:50:07;;;;;;;46.22;27.15;;;;;;;;;;10111871;28;20444;-61
2023/01/07 20:55:02;;;;;;;47.85;32.88;;;;;;;;;;10106057;28;20091;-63
2023/01/07 20:59:55;;;;;;;60.67;41.15;;;;;;;;;;10125758;28;20124;-60
2023/01/07 21:04:49;;;;;;;45.17;30.90;;;;;;;;;;10132332;28;20045;-61
2023/01/07 21:09:44;;;;;;;39.42;29.40;;;;;;;;;;10132858;28;20090;-60
2023/01/07 21:14:38;;;;;;;54.67;32.70;;;;;;;;;;10129873;28;20056;-60
2023/01/07 21:19:31;;;;;;;42.10;32.50;;;;;;;;;;10128930;28;20057;-64
2023/01/07 21:24:25;;;;;;;41.05;29.02;;;;;;;;;;10126960;28;20106;-63
2023/01/07 21:29:19;;;;;;;43.45;26.40;;;;;;;;;;10128668;28;20056;-60
2023/01/07 21:34:14;;;;;;;42.47;27.30;;;;;;;;;;10127215;28;20072;-60
2023/01/07 21:39:09;;;;;;;32.92;26.95;;;;;;;;;;10131087;28;20120;-60
2023/01/07 21:44:03;;;;;;;33.05;24.50;;;;;;;;;;10124810;28;20048;-60
2023/01/07 21:48:56;;;;;;;36.72;26.23;;;;;;;;;;10132916;28;20132;-62
2023/01/07 21:53:51;;;;;;;51.03;28.00;;;;;;;;;;10117074;28;20147;-61
2023/01/07 21:58:45;;;;;;;39.55;26.50;;;;;;;;;;10109869;28;20053;-61
2023/01/07 22:03:38;;;;;;;45.58;26.15;;;;;;;;;;10112099;28;20045;-62
2023/01/07 22:08:32;;;;;;;43.35;26.80;;;;;;;;;;10109715;28;20053;-62
2023/01/07 22:13:25;;;;;;;40.42;29.08;;;;;;;;;;10122246;28;20049;-63
2023/01/07 22:18:20;;;;;;;38.38;27.90;;;;;;;;;;10135382;28;20128;-61
2023/01/07 22:23:16;;;;;;;39.40;25.55;;;;;;;;;;10111427;28;20079;-61
2023/01/07 22:28:10;;;;;;;34.92;24.08;;;;;;;;;;10110201;28;20197;-61
2023/01/07 22:33:04;;;;;;;31.38;24.50;;;;;;;;;;10122442;28;20494;-61
2023/01/07 22:38:00;;;;;;;38.05;26.85;;;;;;;;;;10110986;28;20041;-61
2023/01/07 22:42:56;;;;;;;36.20;26.95;;;;;;;;;;10110009;28;20063;-61
2023/01/07 22:47:51;;;;;;;41.80;30.08;;;;;;;;;;10109314;28;21577;-61
2023/01/07 22:52:44;;;;;;;45.35;31.83;;;;;;;;;;10114663;28;20056;-61
2023/01/07 22:57:38;;;;;;;44.28;29.75;;;;;;;;;;10113531;28;20087;-61
2023/01/07 23:02:32;;;;;;;38.05;27.67;;;;;;;;;;10119064;28;20138;-61
2023/01/07 23:07:26;;;;;;;43.97;29.98;;;;;;;;;;10111809;28;20509;-61
2023/01/07 23:12:20;;;;;;;40.15;27.85;;;;;;;;;;10108845;28;20049;-61
2023/01/07 23:17:14;;;;;;;40.53;29.50;;;;;;;;;;10108664;28;20049;-61
2023/01/07 23:22:08;;;;;;;38.88;29.42;;;;;;;;;;10109236;28;20065;-61
2023/01/07 23:27:02;;;;;;;46.80;31.00;;;;;;;;;;10108023;28;20085;-61
2023/01/07 23:31:56;;;;;;;38.65;28.33;;;;;;;;;;10107769;28;20064;-61
2023/01/07 23:36:50;;;;;;;41.17;29.00;;;;;;;;;;10107784;28;20448;-61
2023/01/07 23:41:44;;;;;;;42.78;29.05;;;;;;;;;;10108292;28;20068;-61
2023/01/07 23:46:39;;;;;;;36.28;27.00;;;;;;;;;;10107413;28;20072;-61
2023/01/07 23:51:32;;;;;;;39.83;27.25;;;;;;;;;;10106808;28;20394;-61
2023/01/07 23:56:26;;;;;;;35.97;28.08;;;;;;;;;;10109415;28;20060;-61
